Time;durP1;ratioP1;P1;durP2;ratioP2;P2;SDS_P1;SDS_P2;PMS_P1;PMS_P2;Temp;Humidity;BMP_temperature;BMP_pressure;BME280_temperature;BME280_humidity;BME280_pressure;Samples;Min_cycle;Max_cycle;Signal;HPM_P1;HPM_P2
2022/12/08 19:05:38;;;;;;;49.13;4.75;;;;;;;22.15;100.00;99748.59;1768951;78;23384;-49
2022/12/08 19:09:30;;;;;;;2.50;1.47;;;;;;;23.26;100.00;99710.33;1779143;79;22838;-42
2022/12/08 19:11:57;;;;;;;2.15;0.90;;;;;;;23.89;100.00;99715.53;1738488;80;21497;-42
2022/12/08 19:14:24;;;;;;;2.83;0.85;;;;;;;24.33;100.00;99704.08;1710377;83;21907;-43
2022/12/08 19:17:44;;;;;;;4.65;1.10;;;;;;;24.74;100.00;99690.53;1757270;79;22885;-43
2022/12/08 19:20:12;;;;;;;0.82;0.82;;;;;;;25.02;100.00;99701.17;1723046;80;21593;-40
2022/12/08 19:22:39;;;;;;;0.95;0.80;;;;;;;25.23;100.00;99705.70;1724777;81;21874;-42
2022/12/08 19:25:06;;;;;;;0.80;0.80;;;;;;;25.39;100.00;99703.63;1725825;81;21612;-43
2022/12/08 19:31:15;;;;;;;7.87;7.17;;;;;;;24.56;100.00;99681.14;1784958;78;23250;-63
2022/12/08 19:33:41;;;;;;;9.53;8.63;;;;;;;20.51;100.00;99690.05;1740225;80;21589;-62
2022/12/08 19:36:12;;;;;;;8.85;7.97;;;;;;;16.69;100.00;99701.77;1740928;80;22195;-62
2022/12/08 19:47:08;;;;;;;9.20;7.00;;;;;;;7.89;100.00;99731.91;1739636;80;21474;-63
2022/12/08 19:49:34;;;;;;;8.95;7.25;;;;;;;6.36;100.00;99736.48;1741659;80;21802;-62
2022/12/08 19:52:01;;;;;;;8.80;7.07;;;;;;;5.40;100.00;99740.30;1693525;83;21615;-61
2022/12/08 19:54:28;;;;;;;7.70;6.50;;;;;;;4.56;100.00;99747.48;1703391;83;21555;-61
2022/12/08 19:56:54;;;;;;;7.47;6.25;;;;;;;3.89;100.00;99760.61;1688826;83;21510;-61
2022/12/08 19:59:24;;;;;;;7.75;6.80;;;;;;;3.32;100.00;99766.98;1696704;82;21489;-61
2022/12/08 20:09:53;;;;;;;8.43;6.15;;;;;;;1.85;100.00;99800.18;1698257;82;21597;-63
2022/12/08 20:12:20;;;;;;;8.08;6.12;;;;;;;1.35;100.00;99815.03;1693654;82;21144;-63
2022/12/08 20:14:47;;;;;;;8.03;5.95;;;;;;;1.16;100.00;99820.25;1701780;82;21502;-63
2022/12/08 20:17:14;;;;;;;8.43;6.20;;;;;;;1.04;100.00;99820.72;1702026;82;21935;-63
2022/12/08 20:19:41;;;;;;;8.48;6.70;;;;;;;0.96;100.00;99827.17;1701432;82;21534;-62
2022/12/08 20:22:08;;;;;;;8.00;5.92;;;;;;;0.84;100.00;99831.94;1696050;83;21530;-63
2022/12/08 20:24:35;;;;;;;8.13;7.15;;;;;;;0.73;100.00;99828.48;1693356;82;21479;-61
2022/12/08 20:27:01;;;;;;;7.03;5.90;;;;;;;0.63;100.00;99828.92;1694631;82;21522;-62
2022/12/08 20:29:28;;;;;;;8.43;6.75;;;;;;;0.55;100.00;99833.23;1684396;83;21896;-65
2022/12/08 20:31:55;;;;;;;7.53;6.30;;;;;;;0.49;100.00;99835.39;1686420;83;21003;-65
2022/12/08 20:34:21;;;;;;;6.90;5.65;;;;;;;0.40;100.00;99844.42;1692531;83;21455;-67
2022/12/08 20:36:48;;;;;;;8.13;6.22;;;;;;;0.34;100.00;99855.63;1690801;82;21605;-64
2022/12/08 20:39:51;;;;;;;6.08;5.47;;;;;;;0.27;100.00;99855.17;1690225;78;21615;-58
2022/12/08 20:45:35;;;;;;;5.47;4.87;;;;;;;-0.13;100.00;99849.88;1789811;78;23168;-62
2022/12/08 20:48:02;;;;;;;5.95;5.37;;;;;;;-0.10;100.00;99864.09;1742390;80;21411;-65
2022/12/08 20:50:29;;;;;;;7.42;6.45;;;;;;;-0.08;100.00;99868.84;1772407;80;21907;-59
2022/12/08 20:52:55;;;;;;;7.33;6.53;;;;;;;-0.12;100.00;99867.10;1769878;80;21030;-59
2022/12/08 20:55:22;;;;;;;8.15;7.03;;;;;;;-0.15;100.00;99868.81;1774010;80;21418;-59
2022/12/08 20:57:48;;;;;;;9.40;7.30;;;;;;;-0.19;100.00;99867.93;1767423;80;21422;-59
2022/12/08 21:00:16;;;;;;;9.03;7.35;;;;;;;-0.20;100.00;99862.34;1771130;80;21634;-59
2022/12/08 21:02:42;;;;;;;7.45;6.70;;;;;;;-0.22;100.00;99860.18;1755314;80;21854;-58
2022/12/08 21:05:09;;;;;;;8.00;7.20;;;;;;;-0.23;100.00;99855.86;1762772;80;21496;-58
2022/12/08 21:07:35;;;;;;;8.60;7.25;;;;;;;-0.21;100.00;99865.77;1764504;80;21542;-59
2022/12/08 21:10:02;;;;;;;9.25;7.33;;;;;;;-0.22;100.00;99862.33;1764876;80;21510;-59
2022/12/08 21:12:31;;;;;;;8.75;7.08;;;;;;;-0.23;100.00;99867.48;1759600;80;21598;-59
2022/12/08 21:14:57;;;;;;;8.15;7.30;;;;;;;-0.20;100.00;99869.66;1758023;80;22176;-59
2022/12/08 21:17:24;;;;;;;9.75;7.15;;;;;;;-0.20;100.00;99869.66;1761165;80;21398;-59
2022/12/08 21:19:51;;;;;;;8.78;6.92;;;;;;;-0.19;100.00;99864.05;1764306;80;21549;-59
2022/12/08 21:22:19;;;;;;;8.15;6.15;;;;;;;-0.18;100.00;99855.89;1765216;80;21549;-59
2022/12/08 21:24:47;;;;;;;8.10;6.15;;;;;;;-0.18;100.00;99855.89;1753244;80;21158;-58
2022/12/08 21:27:13;;;;;;;12.85;6.45;;;;;;;-0.18;100.00;99855.89;1760496;80;21739;-59
2022/12/08 21:29:40;;;;;;;9.78;7.00;;;;;;;-0.21;100.00;99851.15;1770802;80;21454;-59
2022/12/08 21:32:06;;;;;;;7.70;6.20;;;;;;;-0.18;100.00;99854.60;1757405;80;21537;-59
2022/12/08 21:34:33;;;;;;;7.78;6.75;;;;;;;-0.19;100.00;99851.13;1755207;80;21556;-59
2022/12/08 21:37:00;;;;;;;8.00;6.13;;;;;;;-0.18;100.00;99855.89;1773013;80;21540;-59
2022/12/08 21:39:28;;;;;;;7.78;6.55;;;;;;;-0.21;100.00;99856.32;1768094;80;21605;-60
2022/12/08 21:44:40;;;;;;;7.22;6.00;;;;;;;-0.20;100.00;99866.22;1760061;80;21486;-56
2022/12/08 21:47:07;;;;;;;8.40;6.87;;;;;;;-0.23;100.00;99870.07;1749936;80;21041;-57
2022/12/08 21:49:34;;;;;;;7.70;6.70;;;;;;;-0.24;100.00;99874.82;1752454;80;21046;-57
2022/12/08 21:52:01;;;;;;;11.88;8.05;;;;;;;-0.24;100.00;99875.67;1758035;80;21963;-56
2022/12/08 21:54:27;;;;;;;8.65;6.58;;;;;;;-0.20;100.00;99875.27;1759398;80;21097;-56
2022/12/08 21:56:54;;;;;;;8.10;7.20;;;;;;;-0.22;100.00;99869.23;1755059;80;21041;-56
2022/12/08 21:59:20;;;;;;;9.80;7.37;;;;;;;-0.22;100.00;99870.52;1752500;80;21589;-57
2022/12/08 22:01:47;;;;;;;9.18;6.70;;;;;;;-0.22;100.00;99875.69;1756769;80;21505;-57
2022/12/08 22:04:16;;;;;;;8.58;6.85;;;;;;;-0.22;100.00;99865.35;1756068;80;21795;-58
2022/12/08 22:06:43;;;;;;;9.90;6.55;;;;;;;-0.24;100.00;99859.31;1753825;80;21403;-59
2022/12/08 22:09:12;;;;;;;9.60;7.45;;;;;;;-0.26;100.00;99851.98;1760718;80;21182;-59
2022/12/08 22:11:38;;;;;;;6.87;6.17;;;;;;;-0.26;100.00;99849.41;1754102;80;21594;-59
2022/12/08 22:14:05;;;;;;;7.47;6.00;;;;;;;-0.24;100.00;99843.38;1761983;80;20955;-60
2022/12/08 22:16:32;;;;;;;6.60;5.70;;;;;;;-0.25;100.00;99833.02;1763622;80;21499;-60
2022/12/08 22:18:59;;;;;;;6.45;5.58;;;;;;;-0.26;100.00;99831.31;1755948;80;21454;-56
2022/12/08 22:21:25;;;;;;;6.95;5.33;;;;;;;-0.28;100.00;99821.41;1754025;80;21098;-56
2022/12/08 22:23:52;;;;;;;6.87;6.17;;;;;;;-0.29;100.00;99822.24;1749674;80;22491;-57
2022/12/08 22:26:19;;;;;;;8.33;5.58;;;;;;;-0.32;100.00;99819.64;1761990;80;21576;-57
2022/12/08 22:28:45;;;;;;;6.35;5.67;;;;;;;-0.33;100.00;99824.39;1760559;80;21749;-57
2022/12/08 22:31:21;;;;;;;6.55;5.25;;;;;;;-0.28;100.00;99830.45;1760336;80;21514;-56
2022/12/08 22:33:47;;;;;;;6.50;5.50;;;;;;;-0.29;100.00;99828.27;1757133;80;21580;-58
2022/12/08 22:36:17;;;;;;;6.55;5.40;;;;;;;-0.24;100.00;99821.84;1758562;80;21442;-58
2022/12/08 22:38:44;;;;;;;6.35;5.03;;;;;;;-0.26;100.00;99819.25;1760781;80;21042;-58
2022/12/08 22:41:11;;;;;;;6.63;5.33;;;;;;;-0.24;100.00;99815.38;1714346;82;22124;-58
2022/12/08 22:43:38;;;;;;;6.33;5.57;;;;;;;-0.28;100.00;99812.36;1757266;80;21502;-57
2022/12/08 22:46:13;;;;;;;10.47;6.70;;;;;;;-0.26;100.00;99809.34;1763831;80;21514;-58
2022/12/08 22:48:40;;;;;;;6.75;5.10;;;;;;;-0.27;100.00;99800.70;1754549;80;21506;-59
2022/12/08 22:51:06;;;;;;;6.67;5.72;;;;;;;-0.27;100.00;99798.56;1692372;83;21545;-57
2022/12/08 22:53:33;;;;;;;7.40;5.85;;;;;;;-0.25;100.00;99791.23;1754460;80;21790;-57
2022/12/08 22:56:05;;;;;;;5.33;4.83;;;;;;;-0.21;100.00;99788.23;1761977;80;20970;-61
2022/12/08 22:58:31;;;;;;;6.20;5.60;;;;;;;-0.20;100.00;99793.86;1733042;80;21505;-58
2022/12/08 23:00:58;;;;;;;5.35;4.75;;;;;;;-0.21;100.00;99795.99;1752070;80;21496;-57
2022/12/08 23:03:25;;;;;;;5.10;4.22;;;;;;;-0.22;100.00;99786.09;1764822;80;21065;-58
2022/12/08 23:05:51;;;;;;;6.15;4.67;;;;;;;-0.29;100.00;99789.51;1758889;80;21885;-58
2022/12/08 23:08:18;;;;;;;5.10;4.60;;;;;;;-0.32;100.00;99795.09;1751687;80;21545;-57
2022/12/08 23:10:45;;;;;;;7.05;4.87;;;;;;;-0.39;100.00;99786.47;1753510;80;21455;-58
2022/12/08 23:13:13;;;;;;;8.60;5.45;;;;;;;-0.38;100.00;99796.36;1755428;80;21431;-58
2022/12/08 23:15:39;;;;;;;8.30;6.37;;;;;;;-0.41;100.00;99795.50;1767448;80;21494;-57
2022/12/08 23:18:06;;;;;;;6.92;6.22;;;;;;;-0.38;100.00;99801.53;1755252;80;21819;-58
2022/12/08 23:20:33;;;;;;;6.33;5.72;;;;;;;-0.36;100.00;99811.44;1766751;80;21002;-57
2022/12/08 23:23:00;;;;;;;7.60;6.50;;;;;;;-0.40;100.00;99801.52;1768133;80;21533;-58
2022/12/08 23:25:27;;;;;;;7.58;5.67;;;;;;;-0.36;100.00;99799.38;1758341;80;21585;-57
2022/12/08 23:27:54;;;;;;;5.92;5.10;;;;;;;-0.36;100.00;99799.81;1765205;80;21474;-57
2022/12/08 23:30:21;;;;;;;7.53;6.72;;;;;;;-0.33;100.00;99801.13;1754281;80;21771;-57
2022/12/08 23:32:48;;;;;;;5.37;4.25;;;;;;;-0.30;100.00;99808.47;1763528;80;21510;-57
2022/12/08 23:35:14;;;;;;;7.42;5.67;;;;;;;-0.31;100.00;99821.38;1765497;80;21446;-57
2022/12/08 23:37:41;;;;;;;7.37;5.87;;;;;;;-0.36;100.00;99811.44;1766017;80;21506;-57
2022/12/08 23:40:08;;;;;;;6.15;5.55;;;;;;;-0.42;100.00;99814.42;1753957;80;21442;-59
2022/12/08 23:42:35;;;;;;;8.33;6.22;;;;;;;-0.43;100.00;99803.67;1758526;80;21797;-57
2022/12/08 23:45:03;;;;;;;6.65;5.12;;;;;;;-0.44;100.00;99795.47;1751634;80;21104;-57
2022/12/08 23:47:30;;;;;;;7.97;6.22;;;;;;;-0.44;100.00;99795.47;1738895;80;21585;-57
2022/12/08 23:49:56;;;;;;;6.35;5.62;;;;;;;-0.43;100.00;99784.73;1748104;80;21592;-57
2022/12/08 23:52:23;;;;;;;8.15;6.47;;;;;;;-0.42;100.00;99779.55;1753514;80;21474;-58
2022/12/08 23:54:49;;;;;;;6.90;5.42;;;;;;;-0.37;100.00;99777.44;1748179;80;21789;-58
2022/12/08 23:57:16;;;;;;;8.28;6.25;;;;;;;-0.40;100.00;99765.35;1751971;80;21049;-60
2022/12/08 23:59:43;;;;;;;7.30;6.20;;;;;;;-0.42;100.00;99765.78;1756251;80;21455;-59
